Time;durP1;ratioP1;P1;durP2;ratioP2;P2;SDS_P1;SDS_P2;PMS_P1;PMS_P2;Temp;Humidity;BMP_temperature;BMP_pressure;BME280_temperature;BME280_humidity;BME280_pressure;Samples;Min_cycle;Max_cycle;Signal;HPM_P1;HPM_P2
2022/08/15 00:01:36;;;;;;;27.95;19.98;;;;;;;18.92;100.00;98504.28;5089594;28;20196;-60
2022/08/15 00:04:07;;;;;;;23.17;18.52;;;;;;;18.94;100.00;98512.88;5089661;28;20600;-60
2022/08/15 00:06:39;;;;;;;23.10;18.02;;;;;;;18.89;100.00;98512.41;5089697;28;20210;-60
2022/08/15 00:09:11;;;;;;;18.83;16.27;;;;;;;18.78;100.00;98497.47;5089545;28;20258;-60
2022/08/15 00:11:41;;;;;;;18.60;16.48;;;;;;;18.86;100.00;98510.84;5089771;28;20670;-60
2022/08/15 00:14:11;;;;;;;20.85;15.50;;;;;;;18.89;100.00;98521.13;5089486;28;20680;-59
2022/08/15 00:16:40;;;;;;;19.27;14.63;;;;;;;18.93;100.00;98521.72;5102978;28;20197;-60
2022/08/15 00:19:19;;;;;;;20.90;14.40;;;;;;;18.90;100.00;98519.31;5109710;28;20195;-59
2022/08/15 00:21:48;;;;;;;16.95;14.38;;;;;;;18.85;100.00;98514.41;5109823;28;20285;-59
2022/08/15 00:24:20;;;;;;;19.40;15.02;;;;;;;18.81;100.00;98516.47;5110043;28;20648;-59
2022/08/15 00:26:49;;;;;;;17.88;15.32;;;;;;;18.79;100.00;98517.53;5109913;28;20208;-59
2022/08/15 00:29:17;;;;;;;20.58;16.08;;;;;;;18.74;100.00;98512.63;5109755;28;20318;-59
2022/08/15 00:31:45;;;;;;;21.10;16.00;;;;;;;18.87;100.00;98515.13;5109689;28;20252;-60
2022/08/15 00:34:13;;;;;;;20.75;16.38;;;;;;;18.91;100.00;98510.47;5109613;28;20199;-60
2022/08/15 00:36:40;;;;;;;21.00;16.52;;;;;;;18.83;100.00;98511.09;5109671;28;20205;-60
2022/08/15 00:39:07;;;;;;;22.52;16.20;;;;;;;18.75;100.00;98518.72;5109664;28;20222;-60
2022/08/15 00:41:42;;;;;;;22.98;16.52;;;;;;;18.67;100.00;98510.59;5109565;28;20242;-61
2022/08/15 00:44:13;;;;;;;19.77;16.38;;;;;;;18.68;100.00;98515.75;5109747;28;20202;-61
2022/08/15 00:46:43;;;;;;;22.55;17.15;;;;;;;18.67;100.00;98524.59;5109793;28;20190;-61
2022/08/15 00:49:11;;;;;;;20.50;16.33;;;;;;;18.70;100.00;98511.22;5109567;28;20222;-62
2022/08/15 00:51:41;;;;;;;19.25;16.90;;;;;;;18.60;100.00;98520.78;5113467;28;20281;-62
2022/08/15 00:54:11;;;;;;;21.90;16.63;;;;;;;18.45;100.00;98516.66;5113138;28;20201;-60
2022/08/15 00:56:43;;;;;;;21.88;16.95;;;;;;;18.32;100.00;98515.91;5113216;28;20243;-61
2022/08/15 00:59:14;;;;;;;19.92;16.90;;;;;;;18.27;100.00;98518.06;5113395;28;25105;-59
2022/08/15 01:01:42;;;;;;;23.33;17.25;;;;;;;18.22;100.00;98514.94;5113032;28;25071;-59
2022/08/15 01:04:10;;;;;;;24.27;17.55;;;;;;;18.18;100.00;98518.75;5112639;28;25068;-59
2022/08/15 01:06:38;;;;;;;29.10;16.57;;;;;;;18.16;100.00;98526.75;5112780;28;25094;-59
2022/08/15 01:09:07;;;;;;;18.87;16.23;;;;;;;18.17;100.00;98519.72;5112774;28;25056;-59
2022/08/15 01:11:38;;;;;;;20.37;16.03;;;;;;;18.10;100.00;98517.53;5112868;28;20204;-61
2022/08/15 01:14:07;;;;;;;19.08;16.67;;;;;;;18.18;100.00;98518.75;5113022;28;20206;-62
2022/08/15 01:16:38;;;;;;;23.05;16.48;;;;;;;18.23;100.00;98522.72;5112939;28;20212;-60
2022/08/15 01:19:10;;;;;;;19.40;16.77;;;;;;;18.33;100.00;98528.94;5100458;28;25156;-60
2022/08/15 01:21:41;;;;;;;18.90;16.15;;;;;;;18.36;100.00;98527.88;5100752;28;25093;-59
2022/08/15 01:24:15;;;;;;;20.45;16.88;;;;;;;18.45;100.00;98529.78;5101548;28;20211;-59
2022/08/15 01:26:45;;;;;;;19.40;17.27;;;;;;;18.47;100.00;98533.16;5097595;28;20195;-59
2022/08/15 01:29:14;;;;;;;20.60;16.67;;;;;;;18.56;100.00;98535.06;5091992;28;20230;-59
2022/08/15 01:31:41;;;;;;;21.20;17.27;;;;;;;18.58;100.00;98532.34;5092136;28;20191;-59
2022/08/15 01:34:08;;;;;;;23.63;17.00;;;;;;;18.51;100.00;98532.78;5092359;28;20687;-60
2022/08/15 01:36:35;;;;;;;19.52;17.42;;;;;;;18.41;100.00;98529.19;5092355;28;20568;-60
2022/08/15 01:39:09;;;;;;;20.80;17.27;;;;;;;18.48;100.00;98542.69;5092051;28;20202;-59
2022/08/15 01:41:43;;;;;;;20.63;17.58;;;;;;;18.52;100.00;98544.97;5092235;28;20626;-60
2022/08/15 01:44:18;;;;;;;23.15;17.88;;;;;;;18.50;100.00;98554.78;5091889;28;20585;-60
2022/08/15 01:46:51;;;;;;;24.63;19.15;;;;;;;18.47;100.00;98556.78;5091782;28;20195;-59
2022/08/15 01:49:24;;;;;;;21.83;18.08;;;;;;;18.47;100.00;98554.16;5092188;28;20222;-59
2022/08/15 01:51:54;;;;;;;26.25;19.10;;;;;;;18.55;100.00;98550.94;5092031;28;20590;-59
2022/08/15 01:54:23;;;;;;;22.67;19.48;;;;;;;18.53;100.00;98551.06;5091600;28;20199;-59
2022/08/15 01:56:50;;;;;;;23.92;19.38;;;;;;;18.44;100.00;98536.84;5091563;28;20691;-59
2022/08/15 01:59:21;;;;;;;23.65;19.67;;;;;;;18.41;100.00;98538.84;5091835;28;20298;-59
2022/08/15 02:01:51;;;;;;;23.05;19.90;;;;;;;18.45;100.00;98545.56;5091156;28;20199;-59
2022/08/15 02:04:22;;;;;;;18.77;16.67;;;;;;;18.42;100.00;98543.16;5091590;28;20659;-59
2022/08/15 02:06:49;;;;;;;20.80;17.33;;;;;;;18.43;100.00;98550.09;5091409;28;20199;-58
2022/08/15 02:09:18;;;;;;;16.02;14.32;;;;;;;18.39;100.00;98538.16;5091342;28;20617;-60
2022/08/15 02:11:46;;;;;;;17.67;14.95;;;;;;;18.41;100.00;98542.31;5091551;28;20671;-60
2022/08/15 02:14:14;;;;;;;16.85;15.20;;;;;;;18.50;100.00;98552.16;5091504;28;20195;-59
2022/08/15 02:16:43;;;;;;;16.88;13.80;;;;;;;18.54;100.00;98547.47;5091231;28;20454;-60
2022/08/15 02:19:13;;;;;;;18.17;14.07;;;;;;;18.62;100.00;98553.03;5091300;28;20196;-59
2022/08/15 02:21:42;;;;;;;21.08;14.10;;;;;;;18.60;100.00;98552.31;5091257;28;20260;-60
2022/08/15 02:24:14;;;;;;;15.48;13.98;;;;;;;18.65;100.00;98550.16;5091560;28;20672;-59
2022/08/15 02:26:41;;;;;;;18.65;13.82;;;;;;;18.67;100.00;98547.41;5091254;28;20733;-59
2022/08/15 02:29:08;;;;;;;13.90;12.68;;;;;;;18.68;100.00;98555.19;5091089;28;20223;-59
2022/08/15 02:31:36;;;;;;;14.20;12.48;;;;;;;18.60;100.00;98551.47;5091220;28;20586;-59
2022/08/15 02:34:05;;;;;;;14.55;12.50;;;;;;;18.57;100.00;98557.75;5090922;28;20199;-59
2022/08/15 02:36:34;;;;;;;14.70;13.20;;;;;;;18.58;100.00;98561.25;5090856;28;20196;-60
2022/08/15 02:39:04;;;;;;;14.55;13.10;;;;;;;18.52;100.00;98565.16;5090785;28;20192;-60
2022/08/15 02:41:36;;;;;;;18.20;14.43;;;;;;;18.47;100.00;98557.63;5090663;28;20204;-59
2022/08/15 02:44:04;;;;;;;15.18;13.68;;;;;;;18.45;100.00;98553.44;5090768;28;20195;-59
2022/08/15 02:46:31;;;;;;;19.65;14.63;;;;;;;18.37;100.00;98551.41;5090611;28;20298;-60
2022/08/15 02:49:01;;;;;;;15.05;13.43;;;;;;;18.37;100.00;98546.16;5090893;28;20238;-60
2022/08/15 02:51:31;;;;;;;15.45;13.95;;;;;;;18.32;100.00;98534.31;5102709;28;20218;-60
2022/08/15 02:53:58;;;;;;;16.70;14.60;;;;;;;18.29;100.00;98551.13;5100298;27;20245;-59
2022/08/15 02:56:29;;;;;;;14.70;13.30;;;;;;;18.24;100.00;98536.69;5097710;28;20229;-59
2022/08/15 02:58:55;;;;;;;18.50;14.38;;;;;;;18.26;100.00;98542.66;5097306;28;20227;-60
2022/08/15 03:01:26;;;;;;;17.63;14.80;;;;;;;18.23;100.00;98537.63;5100937;28;20260;-61
2022/08/15 03:03:55;;;;;;;21.52;14.57;;;;;;;18.22;100.00;98543.84;5101758;28;20222;-60
2022/08/15 03:06:24;;;;;;;18.70;14.85;;;;;;;18.13;100.00;98546.22;5089478;28;20817;-60
2022/08/15 03:08:58;;;;;;;18.92;14.90;;;;;;;18.01;100.00;98536.63;5088480;28;20223;-60
2022/08/15 03:11:25;;;;;;;17.15;14.60;;;;;;;18.09;100.00;98542.13;5089514;28;20199;-60
2022/08/15 03:13:52;;;;;;;19.10;15.03;;;;;;;17.99;100.00;98528.00;5089423;28;20199;-61
2022/08/15 03:16:19;;;;;;;15.73;14.15;;;;;;;17.98;100.00;98539.47;5090178;28;20253;-60
2022/08/15 03:18:47;;;;;;;19.55;15.02;;;;;;;18.03;100.00;98533.88;5090159;28;20286;-60
2022/08/15 03:21:17;;;;;;;16.15;14.45;;;;;;;18.16;100.00;98532.03;5090242;28;20564;-61
2022/08/15 03:23:48;;;;;;;18.17;13.98;;;;;;;18.06;100.00;98531.84;5090207;28;20203;-60
2022/08/15 03:26:19;;;;;;;16.42;14.52;;;;;;;18.18;100.00;98545.00;5089945;28;20195;-61
2022/08/15 03:28:46;;;;;;;16.63;14.85;;;;;;;18.17;100.00;98536.31;5089985;28;20309;-60
2022/08/15 03:31:15;;;;;;;17.50;15.32;;;;;;;18.09;100.00;98529.00;5089976;28;20195;-60
2022/08/15 03:33:44;;;;;;;20.23;15.30;;;;;;;18.05;100.00;98526.72;5089916;28;20187;-61
2022/08/15 03:36:12;;;;;;;18.52;15.15;;;;;;;17.97;100.00;98527.28;5093518;28;20276;-59
2022/08/15 03:38:40;;;;;;;17.48;15.75;;;;;;;17.93;100.00;98541.63;5097646;28;20200;-60
2022/08/15 03:41:09;;;;;;;20.88;16.35;;;;;;;17.97;100.00;98547.44;5098022;28;20249;-60
2022/08/15 03:43:38;;;;;;;22.15;14.82;;;;;;;18.00;100.00;98542.81;5098404;28;20237;-60
2022/08/15 03:46:09;;;;;;;17.20;15.45;;;;;;;18.07;100.00;98548.44;5094661;28;20291;-60
2022/08/15 03:48:38;;;;;;;16.95;15.13;;;;;;;18.09;100.00;98531.63;5095467;28;20219;-60
2022/08/15 03:51:08;;;;;;;18.27;16.13;;;;;;;18.18;100.00;98542.38;5097904;28;20207;-60
2022/08/15 03:53:43;;;;;;;21.03;15.03;;;;;;;18.33;100.00;98546.50;5099001;28;20221;-60
2022/08/15 03:56:13;;;;;;;17.88;15.98;;;;;;;18.37;100.00;98546.16;5097457;28;20601;-60
2022/08/15 03:58:42;;;;;;;18.15;15.98;;;;;;;18.47;100.00;98546.28;5099679;28;20182;-60
2022/08/15 04:01:13;;;;;;;18.67;15.30;;;;;;;18.65;100.00;98550.16;5096184;28;20195;-61
2022/08/15 04:03:40;;;;;;;19.92;14.82;;;;;;;18.98;100.00;98561.63;5094659;28;20591;-60
2022/08/15 04:06:10;;;;;;;18.85;14.25;;;;;;;19.15;100.00;98558.53;5092557;28;20744;-61
2022/08/15 04:08:38;;;;;;;15.35;13.77;;;;;;;19.31;100.00;98561.59;5097224;28;20658;-61
2022/08/15 04:11:06;;;;;;;18.38;13.43;;;;;;;19.61;100.00;98565.41;5097684;28;20290;-60
2022/08/15 04:13:35;;;;;;;22.70;13.95;;;;;;;20.59;100.00;98566.88;5102844;28;20198;-60
2022/08/15 04:16:04;;;;;;;20.60;13.82;;;;;;;21.86;100.00;98583.03;5109000;28;20665;-61
2022/08/15 04:18:31;;;;;;;15.85;13.48;;;;;;;23.11;100.00;98578.44;5109888;28;20198;-61
2022/08/15 04:21:00;;;;;;;13.55;12.25;;;;;;;24.18;100.00;98589.19;5109420;28;20204;-60
2022/08/15 04:23:27;;;;;;;13.20;11.82;;;;;;;24.92;95.60;98589.66;5108817;28;20191;-60
2022/08/15 04:25:55;;;;;;;16.95;12.30;;;;;;;25.95;93.06;98599.19;5112283;28;20656;-60
2022/08/15 04:28:24;;;;;;;13.68;12.20;;;;;;;27.13;86.79;98611.13;5113924;28;20194;-61
2022/08/15 04:30:52;;;;;;;13.10;11.93;;;;;;;28.09;80.21;98598.38;5113540;28;20194;-61
2022/08/15 04:33:23;;;;;;;14.98;11.45;;;;;;;28.94;76.53;98608.00;5113487;28;20207;-60
2022/08/15 04:35:52;;;;;;;13.18;11.43;;;;;;;29.60;72.14;98617.78;5113979;28;20190;-60
2022/08/15 04:38:19;;;;;;;13.27;11.10;;;;;;;30.49;66.71;98604.94;5113588;28;20281;-60
2022/08/15 04:40:48;;;;;;;11.30;10.38;;;;;;;30.65;64.16;98623.44;5113943;28;20286;-59
2022/08/15 04:43:15;;;;;;;10.82;9.88;;;;;;;30.23;64.81;98611.75;5109578;28;20226;-60
2022/08/15 04:45:43;;;;;;;11.10;10.10;;;;;;;30.73;63.37;98617.94;5093163;28;20199;-60
2022/08/15 04:48:14;;;;;;;10.95;9.98;;;;;;;31.40;60.75;98615.50;5091928;28;20195;-59
2022/08/15 04:50:44;;;;;;;11.35;10.23;;;;;;;31.81;59.29;98629.97;5092859;28;20215;-60
2022/08/15 04:53:13;;;;;;;10.40;9.50;;;;;;;32.78;56.08;98615.06;5092833;28;20191;-61
2022/08/15 04:55:43;;;;;;;10.18;9.43;;;;;;;33.74;52.51;98627.88;5092791;28;20195;-59
2022/08/15 04:58:11;;;;;;;12.73;9.65;;;;;;;34.55;49.77;98630.72;5102554;28;20192;-59
2022/08/15 05:00:40;;;;;;;9.30;8.57;;;;;;;35.32;47.51;98626.75;5101350;28;20241;-60
2022/08/15 05:03:10;;;;;;;9.07;8.23;;;;;;;35.66;45.46;98626.13;5102875;28;20230;-61
2022/08/15 05:05:45;;;;;;;9.57;8.90;;;;;;;35.23;45.72;98599.19;5103250;28;20191;-59
2022/08/15 05:08:12;;;;;;;9.75;8.95;;;;;;;35.38;45.50;98612.34;5102232;28;20191;-59
2022/08/15 05:10:39;;;;;;;10.02;9.35;;;;;;;35.24;46.01;98611.63;5101033;28;20211;-60
2022/08/15 05:13:12;;;;;;;9.13;8.50;;;;;;;35.34;46.00;98619.25;5103046;28;20572;-60
2022/08/15 05:15:39;;;;;;;9.60;8.65;;;;;;;35.68;45.29;98620.50;5112435;28;20735;-61
2022/08/15 05:18:06;;;;;;;8.98;8.18;;;;;;;35.97;45.12;98621.59;5113089;28;20198;-61
2022/08/15 05:20:33;;;;;;;9.65;8.82;;;;;;;35.70;45.07;98620.25;5112787;28;20197;-61
2022/08/15 05:23:04;;;;;;;9.35;8.55;;;;;;;35.75;45.05;98620.44;5112629;28;20234;-60
2022/08/15 05:25:33;;;;;;;11.60;8.38;;;;;;;35.55;45.29;98613.41;5112678;28;20361;-61
2022/08/15 05:28:01;;;;;;;9.95;9.25;;;;;;;36.25;44.06;98612.91;5101859;28;20191;-60
2022/08/15 05:30:27;;;;;;;8.38;7.68;;;;;;;36.18;44.17;98618.38;5092094;28;20226;-61
2022/08/15 05:33:05;;;;;;;9.13;8.43;;;;;;;36.56;43.17;98615.34;5092243;28;20285;-59
2022/08/15 05:35:32;;;;;;;9.82;7.65;;;;;;;36.46;43.42;98627.78;5091853;28;20201;-62
2022/08/15 05:38:03;;;;;;;8.18;7.57;;;;;;;35.96;44.23;98620.78;5091210;28;20198;-61
2022/08/15 05:40:39;;;;;;;8.45;7.72;;;;;;;35.45;45.65;98629.28;5091959;28;20191;-61
2022/08/15 05:43:11;;;;;;;9.57;8.20;;;;;;;35.43;46.01;98623.31;5092096;28;20227;-60
2022/08/15 05:45:47;;;;;;;9.43;8.10;;;;;;;35.36;46.86;98635.22;5091973;28;20203;-61
2022/08/15 05:48:17;;;;;;;9.82;8.90;;;;;;;35.84;45.85;98644.22;5091840;28;20199;-59
2022/08/15 05:50:52;;;;;;;9.13;8.60;;;;;;;35.91;44.54;98641.41;5091745;28;20219;-61
2022/08/15 05:53:29;;;;;;;9.55;8.82;;;;;;;35.99;44.86;98646.50;5091681;28;20198;-60
2022/08/15 05:56:04;;;;;;;12.98;11.88;;;;;;;35.64;45.80;98644.44;5091807;28;20703;-62
2022/08/15 05:58:40;;;;;;;10.02;8.90;;;;;;;35.59;45.55;98646.16;5091888;28;20582;-60
2022/08/15 06:01:14;;;;;;;11.82;10.75;;;;;;;36.09;44.70;98637.84;5091800;28;20285;-62
2022/08/15 06:03:45;;;;;;;9.77;8.88;;;;;;;36.85;43.07;98650.66;5091726;28;20194;-59
2022/08/15 06:06:20;;;;;;;9.93;9.07;;;;;;;37.24;42.48;98654.56;5091380;28;20209;-60
2022/08/15 06:08:54;;;;;;;8.18;7.78;;;;;;;37.70;41.47;98640.94;5091447;28;20194;-61
2022/08/15 06:11:26;;;;;;;8.73;7.97;;;;;;;37.94;40.96;98641.69;5091538;28;20186;-59
2022/08/15 06:13:57;;;;;;;8.57;7.97;;;;;;;38.12;41.01;98646.13;5099201;28;20194;-60
2022/08/15 06:16:29;;;;;;;8.57;7.57;;;;;;;37.91;40.91;98642.19;5100428;28;20202;-59
2022/08/15 06:19:01;;;;;;;7.78;7.13;;;;;;;38.01;41.72;98633.44;5099850;27;20598;-60
2022/08/15 06:21:38;;;;;;;7.80;7.30;;;;;;;37.43;42.45;98639.81;5101058;28;20614;-60
2022/08/15 06:24:28;;;;;;;7.53;7.03;;;;;;;37.03;42.04;98643.22;5100445;28;20198;-60
2022/08/15 06:27:05;;;;;;;7.00;6.35;;;;;;;36.43;43.14;98639.03;5101671;28;20194;-60
2022/08/15 06:29:59;;;;;;;8.60;7.97;;;;;;;35.77;45.04;98643.47;5101015;28;20218;-61
2022/08/15 06:32:36;;;;;;;6.85;6.35;;;;;;;34.92;47.13;98648.69;5100579;28;20563;-60
2022/08/15 06:35:13;;;;;;;6.78;6.32;;;;;;;34.86;47.63;98646.91;5099993;28;20199;-61
2022/08/15 06:37:52;;;;;;;8.13;7.43;;;;;;;34.82;48.04;98653.75;5096339;28;20201;-60
2022/08/15 06:40:29;;;;;;;7.38;6.85;;;;;;;34.75;47.42;98657.53;5090810;28;20205;-61
2022/08/15 06:42:56;;;;;;;7.10;6.60;;;;;;;34.95;47.39;98656.34;5097343;28;20213;-60
2022/08/15 06:45:26;;;;;;;9.90;6.32;;;;;;;35.07;47.42;98656.44;5111079;28;20289;-60
2022/08/15 06:47:59;;;;;;;6.40;6.10;;;;;;;35.07;47.56;98651.06;5110940;28;20201;-60
2022/08/15 06:50:31;;;;;;;8.70;6.40;;;;;;;35.77;46.44;98664.25;5095982;28;20713;-60
2022/08/15 06:53:09;;;;;;;6.13;5.68;;;;;;;36.40;44.61;98669.22;5090587;28;20199;-60
2022/08/15 06:55:52;;;;;;;6.97;6.43;;;;;;;36.57;44.22;98664.81;5090508;28;20209;-59
2022/08/15 06:58:27;;;;;;;6.68;6.20;;;;;;;36.20;44.33;98674.91;5090531;28;20230;-60
2022/08/15 07:01:01;;;;;;;7.78;6.28;;;;;;;35.65;44.46;98667.69;5090501;28;20260;-61
2022/08/15 07:03:40;;;;;;;6.85;6.47;;;;;;;35.36;45.10;98663.03;5090350;28;20210;-60
2022/08/15 07:06:11;;;;;;;7.68;6.30;;;;;;;35.91;43.22;98671.13;5095783;28;20195;-60
2022/08/15 07:08:44;;;;;;;6.45;5.90;;;;;;;35.86;43.16;98679.91;5099107;28;20196;-59
2022/08/15 07:11:17;;;;;;;8.45;6.53;;;;;;;36.12;43.80;98675.22;5110484;28;20222;-60
2022/08/15 07:13:55;;;;;;;7.55;6.10;;;;;;;36.60;42.13;98670.56;5111023;28;20199;-59
2022/08/15 07:16:34;;;;;;;7.25;6.72;;;;;;;36.85;41.61;98683.94;5110596;28;20225;-60
2022/08/15 07:19:02;;;;;;;7.25;6.75;;;;;;;37.26;41.08;98674.06;5110664;28;20194;-60
2022/08/15 07:21:29;;;;;;;8.45;6.30;;;;;;;37.20;40.19;98673.16;5110547;28;20655;-59
2022/08/15 07:24:01;;;;;;;6.65;6.13;;;;;;;37.55;40.08;98678.53;5102067;28;20182;-59
2022/08/15 07:26:32;;;;;;;7.28;6.18;;;;;;;37.62;38.80;98675.72;5108805;28;20200;-60
2022/08/15 07:29:08;;;;;;;6.22;5.55;;;;;;;37.40;38.72;98678.19;5108880;28;20204;-59
2022/08/15 07:31:36;;;;;;;6.70;6.20;;;;;;;37.54;38.61;98651.69;5109308;28;20217;-58
2022/08/15 07:34:06;;;;;;;6.40;6.10;;;;;;;37.91;38.15;98674.69;5095093;28;20604;-59
2022/08/15 07:36:35;;;;;;;6.05;5.65;;;;;;;38.22;37.74;98684.25;5106733;28;20636;-60
2022/08/15 07:39:21;;;;;;;7.00;6.57;;;;;;;37.82;38.08;98681.53;5095763;28;20191;-59
2022/08/15 07:41:49;;;;;;;6.40;6.00;;;;;;;37.45;38.89;98686.44;5089684;28;20238;-60
2022/08/15 07:44:25;;;;;;;6.47;6.00;;;;;;;37.09;39.92;98679.34;5089952;28;20646;-59
2022/08/15 07:46:56;;;;;;;7.05;6.65;;;;;;;37.91;38.58;98679.28;5089773;28;20198;-60
2022/08/15 07:49:25;;;;;;;6.80;6.30;;;;;;;38.47;37.41;98686.63;5094568;28;20595;-60
2022/08/15 07:52:01;;;;;;;6.25;5.85;;;;;;;38.19;37.51;98690.16;5089436;28;20190;-60
2022/08/15 07:54:31;;;;;;;6.60;6.13;;;;;;;37.97;38.61;98675.59;5090204;28;20198;-60
2022/08/15 07:57:02;;;;;;;8.77;6.18;;;;;;;38.28;37.53;98677.03;5089556;28;20201;-59
2022/08/15 07:59:33;;;;;;;7.35;6.95;;;;;;;37.90;38.72;98678.47;5088945;28;20207;-59
2022/08/15 08:02:10;;;;;;;7.20;6.70;;;;;;;38.60;37.96;98680.09;5089727;28;20190;-61
2022/08/15 08:04:38;;;;;;;6.00;5.60;;;;;;;39.20;36.23;98680.25;5089546;28;20201;-61
2022/08/15 08:07:14;;;;;;;6.40;6.10;;;;;;;39.18;35.74;98677.78;5089528;28;20209;-59
2022/08/15 08:09:52;;;;;;;7.13;6.40;;;;;;;38.24;37.06;98668.59;5089308;28;20217;-60
2022/08/15 08:12:30;;;;;;;6.43;6.03;;;;;;;38.37;37.36;98676.41;5089737;28;20637;-61
2022/08/15 08:15:09;;;;;;;6.97;6.30;;;;;;;38.09;37.11;98660.97;5089429;28;20194;-59
2022/08/15 08:17:44;;;;;;;7.32;5.72;;;;;;;37.29;38.43;98666.31;5089415;28;20201;-60
2022/08/15 08:20:20;;;;;;;6.72;6.32;;;;;;;36.68;40.07;98651.28;5089336;28;20315;-60
2022/08/15 08:22:53;;;;;;;7.07;6.57;;;;;;;37.03;39.86;98647.81;5089728;28;20277;-61
2022/08/15 08:25:26;;;;;;;7.18;6.78;;;;;;;36.33;41.70;98647.72;5089395;28;20207;-59
2022/08/15 08:28:07;;;;;;;8.13;7.35;;;;;;;36.27;42.34;98643.22;5089539;28;20199;-61
2022/08/15 08:30:40;;;;;;;7.10;6.70;;;;;;;35.60;43.02;98642.41;5089138;28;20711;-60
2022/08/15 08:33:18;;;;;;;8.25;7.80;;;;;;;34.05;46.56;98633.34;5089283;28;20195;-61
2022/08/15 08:35:53;;;;;;;7.72;7.00;;;;;;;33.86;48.20;98632.38;5089424;28;20199;-60
2022/08/15 08:38:37;;;;;;;8.25;7.65;;;;;;;33.61;49.07;98631.44;5089761;28;20657;-63
2022/08/15 08:41:29;;;;;;;8.40;7.82;;;;;;;33.10;50.24;98620.59;5089378;28;20202;-73
2022/08/15 08:44:12;;;;;;;9.45;8.57;;;;;;;32.41;52.00;98627.22;5089697;28;20195;-71
2022/08/15 08:46:53;;;;;;;8.50;8.00;;;;;;;31.65;54.15;98621.22;5089318;28;20756;-66
2022/08/15 08:49:26;;;;;;;7.93;7.53;;;;;;;31.48;54.36;98616.38;5089113;28;20286;-68
2022/08/15 08:52:13;;;;;;;9.13;8.40;;;;;;;31.87;54.37;98613.03;5089428;28;20223;-60
2022/08/15 08:54:57;;;;;;;8.70;8.25;;;;;;;32.25;53.49;98608.00;5089038;28;20291;-60
2022/08/15 08:57:29;;;;;;;11.65;9.32;;;;;;;32.07;53.96;98605.84;5091299;28;20238;-59
2022/08/15 09:00:02;;;;;;;9.60;8.90;;;;;;;31.63;53.96;98583.03;5097690;28;20215;-60
2022/08/15 09:02:35;;;;;;;8.48;7.95;;;;;;;31.51;55.07;98616.78;5089152;28;20282;-60
2022/08/15 09:05:09;;;;;;;9.70;8.90;;;;;;;31.22;56.66;98614.41;5089166;28;20206;-58
2022/08/15 09:07:44;;;;;;;10.05;9.32;;;;;;;31.67;56.55;98608.44;5088906;28;20287;-57
2022/08/15 09:10:17;;;;;;;10.05;9.35;;;;;;;32.30;54.42;98608.19;5088595;28;20325;-59
2022/08/15 09:15:37;;;;;;;9.82;9.15;;;;;;;33.58;50.43;98609.50;5092571;28;20213;-59
2022/08/15 09:18:10;;;;;;;9.50;8.73;;;;;;;34.30;48.86;98619.94;5092473;28;20234;-57
2022/08/15 09:20:41;;;;;;;9.77;9.18;;;;;;;35.24;46.57;98632.41;5094706;28;20603;-58
2022/08/15 09:23:11;;;;;;;9.43;8.77;;;;;;;35.38;45.98;98625.03;5108867;28;20198;-58
2022/08/15 09:25:44;;;;;;;10.23;9.55;;;;;;;35.06;46.71;98627.81;5112150;28;20649;-57
2022/08/15 09:28:19;;;;;;;10.02;9.23;;;;;;;35.32;46.20;98617.84;5111920;28;20194;-58
2022/08/15 09:30:48;;;;;;;10.30;9.60;;;;;;;35.25;45.84;98623.28;5111574;28;20257;-58
2022/08/15 09:33:43;;;;;;;10.38;9.65;;;;;;;35.47;46.33;98631.75;5111623;28;20204;-57
2022/08/15 09:36:36;;;;;;;10.55;9.85;;;;;;;35.62;45.78;98633.03;5104366;28;20303;-58
2022/08/15 09:39:31;;;;;;;9.90;9.20;;;;;;;35.66;46.46;98615.34;5097571;28;20231;-56
2022/08/15 09:42:13;;;;;;;10.35;9.38;;;;;;;35.74;44.64;98618.81;5101791;28;20237;-57
2022/08/15 09:45:05;;;;;;;9.77;9.05;;;;;;;35.70;44.75;98625.66;5101788;28;20243;-58
2022/08/15 09:47:51;;;;;;;9.32;8.70;;;;;;;35.86;43.89;98631.31;5100898;28;20195;-61
2022/08/15 09:50:34;;;;;;;9.73;9.02;;;;;;;35.80;43.61;98629.50;5101895;28;20194;-57
2022/08/15 09:53:11;;;;;;;8.65;8.02;;;;;;;36.09;42.92;98630.56;5108461;28;20252;-57
2022/08/15 09:55:44;;;;;;;8.90;8.20;;;;;;;36.78;40.46;98625.59;5103094;28;20206;-56
2022/08/15 09:58:20;;;;;;;8.88;8.32;;;;;;;37.28;39.21;98625.94;5106101;28;20580;-57
2022/08/15 10:01:05;;;;;;;8.40;7.90;;;;;;;37.76;38.36;98626.44;5099315;28;20251;-57
2022/08/15 10:03:56;;;;;;;8.95;8.35;;;;;;;38.02;38.14;98626.94;5100248;28;20190;-57
2022/08/15 10:06:26;;;;;;;8.82;8.13;;;;;;;38.61;36.91;98622.88;5101235;28;20592;-58
2022/08/15 10:09:31;;;;;;;9.65;9.02;;;;;;;38.27;36.39;98630.13;5100251;28;20595;-58
2022/08/15 10:12:27;;;;;;;8.57;7.97;;;;;;;39.15;35.56;98637.56;5069593;28;20224;-58
2022/08/15 10:15:04;;;;;;;9.98;9.18;;;;;;;39.27;33.80;98625.78;5101049;28;20201;-58
2022/08/15 10:17:44;;;;;;;8.73;8.13;;;;;;;39.02;34.45;98626.25;5100695;28;20248;-58
2022/08/15 10:20:46;;;;;;;9.85;9.20;;;;;;;38.25;34.77;98621.44;5100428;28;20306;-58
2022/08/15 10:23:15;;;;;;;10.30;9.68;;;;;;;37.91;36.12;98608.84;5099180;28;20199;-58
2022/08/15 10:25:45;;;;;;;11.43;10.63;;;;;;;36.49;39.06;98609.19;5099048;28;20194;-58
2022/08/15 10:28:22;;;;;;;10.90;9.90;;;;;;;35.88;40.81;98623.81;5103419;28;20664;-58
2022/08/15 10:31:24;;;;;;;16.02;14.70;;;;;;;34.48;43.16;98611.94;5099929;28;20227;-59
2022/08/15 10:33:53;;;;;;;13.50;12.40;;;;;;;33.06;45.45;98600.56;5109086;28;20198;-58
2022/08/15 10:36:29;;;;;;;11.63;10.70;;;;;;;32.77;46.92;98585.69;5098653;28;20214;-57
2022/08/15 10:39:12;;;;;;;11.18;10.38;;;;;;;32.72;48.01;98598.94;5100341;28;20191;-58
2022/08/15 10:41:53;;;;;;;11.48;10.48;;;;;;;32.24;48.42;98601.81;5100261;28;20322;-57
2022/08/15 10:44:32;;;;;;;11.80;10.82;;;;;;;31.92;49.96;98613.28;5111057;28;20197;-56
2022/08/15 10:47:14;;;;;;;12.07;11.10;;;;;;;31.96;50.01;98596.53;5107789;28;20191;-59
2022/08/15 10:49:50;;;;;;;11.63;10.63;;;;;;;31.81;50.62;98595.06;5105996;28;20208;-57
2022/08/15 10:52:32;;;;;;;12.20;11.30;;;;;;;31.83;50.70;98593.03;5101042;28;20221;-58
2022/08/15 10:55:17;;;;;;;13.40;12.30;;;;;;;31.81;50.54;98595.06;5099458;28;20195;-57
2022/08/15 10:57:48;;;;;;;15.55;14.15;;;;;;;31.72;50.84;98592.56;5106683;28;20201;-57
2022/08/15 11:00:29;;;;;;;10.90;10.13;;;;;;;31.77;50.88;98588.44;5111048;28;20683;-58
2022/08/15 11:02:56;;;;;;;11.48;10.68;;;;;;;31.92;50.89;98586.44;5110994;28;20202;-59
2022/08/15 11:05:27;;;;;;;10.68;9.88;;;;;;;31.59;49.98;98570.22;5111101;28;20617;-59
2022/08/15 11:07:56;;;;;;;9.35;8.75;;;;;;;31.68;49.53;98585.97;5111405;28;20194;-59
2022/08/15 11:10:27;;;;;;;8.77;8.18;;;;;;;31.68;48.03;98572.53;5110802;28;20588;-60
2022/08/15 11:12:59;;;;;;;10.82;9.95;;;;;;;31.58;49.50;98574.75;5110626;28;20289;-57
2022/08/15 11:15:31;;;;;;;9.52;8.52;;;;;;;31.52;48.60;98578.22;5110810;28;20281;-56
2022/08/15 11:18:03;;;;;;;10.07;9.18;;;;;;;31.63;49.43;98569.63;5110662;28;20195;-57
2022/08/15 11:20:38;;;;;;;9.23;8.63;;;;;;;31.67;50.16;98573.56;5110531;28;20293;-57
2022/08/15 11:23:05;;;;;;;9.32;8.70;;;;;;;31.77;51.10;98569.66;5110129;28;20659;-59
2022/08/15 11:25:40;;;;;;;9.80;9.00;;;;;;;31.66;49.67;98576.44;5110137;28;20194;-60
2022/08/15 11:28:12;;;;;;;9.02;8.45;;;;;;;31.74;48.90;98558.31;5110235;28;20289;-59
2022/08/15 11:30:42;;;;;;;9.52;8.65;;;;;;;32.01;48.40;98559.19;5110471;28;20638;-60
2022/08/15 11:33:19;;;;;;;10.07;8.57;;;;;;;32.06;48.77;98558.56;5110480;28;20230;-61
2022/08/15 11:35:47;;;;;;;9.90;9.23;;;;;;;32.16;48.53;98552.81;5109488;28;20191;-60
2022/08/15 11:38:16;;;;;;;8.95;8.27;;;;;;;32.11;46.70;98558.78;5110225;28;20286;-60
2022/08/15 11:40:50;;;;;;;9.15;8.38;;;;;;;32.02;47.02;98551.97;5110247;28;20209;-60
2022/08/15 11:43:18;;;;;;;8.93;8.15;;;;;;;32.00;47.54;98540.59;5110145;28;20229;-60
2022/08/15 11:45:49;;;;;;;9.80;9.02;;;;;;;31.93;48.03;98545.97;5110242;28;20586;-60
2022/08/15 11:48:21;;;;;;;9.90;9.25;;;;;;;31.87;48.16;98548.63;5110138;28;20194;-60
2022/08/15 11:50:58;;;;;;;9.05;8.38;;;;;;;31.79;48.01;98546.16;5110263;28;20198;-60